Latest Weather Observations for Newdegate

IDW60801

Issued at 3:35 pm WST Saturday 25 October 2014 (issued every 30 minutes, with the page automatically refreshed every 10 minutes)

About weather observations | Map of weather stations | Latest weather observations for WA | Other Formats
Station Details ID: 010692 Name: NEWDEGATE RESEARCH STATION Lat: -33.11 Lon: 118.84 Height: 320.0 m
Data from the previous 72 hours. | See also: Recent months at Newdegate
Date/Time
WST
Temp
°C
App
Temp
°C
Dew
Point
Rel
Hum
%
Delta-T
°C
Wind Press
QNH
hPa
Press
MSL
hPa
Rain
since 9 am
mm
Dir
 
Spd
km/h
Gust
km/h
Spd
kts
Gust
kts
25/03:30pm 23.4 18.5 8.3 38 8.1 W 24 37 13 20 1014.3 1013.9 0.0
25/03:00pm 23.3 19.0 7.8 37 8.3 W 20 33 11 18 1014.1 1013.7 0.0
25/02:30pm 24.0 19.5 8.4 37 8.4 W 22 35 12 19 1014.0 1013.6 0.0
25/02:00pm 24.1 19.2 8.5 37 8.5 W 24 39 13 21 1014.0 1013.6 0.0
25/01:30pm 24.3 19.4 8.3 36 8.7 W 24 33 13 18 1014.0 1013.6 0.0
25/01:00pm 24.1 19.8 7.7 35 8.8 W 20 32 11 17 1014.3 1013.9 0.0
25/12:30pm 23.9 19.4 8.7 38 8.3 W 22 33 12 18 1014.2 1013.8 0.0
25/12:00pm 23.9 19.9 8.3 37 8.4 W 19 28 10 15 1014.2 1013.8 0.0
25/11:30am 23.0 19.1 8.7 40 7.7 W 19 28 10 15 1014.3 1013.9 0.0
25/11:00am 22.9 19.0 9.3 42 7.4 WSW 20 30 11 16 1014.5 1014.1 0.0
25/10:30am 23.3 19.6 9.3 41 7.7 WSW 19 30 10 16 1014.7 1014.3 0.0
25/10:00am 21.0 17.1 9.3 47 6.3 W 20 28 11 15 1014.8 1014.4 0.0
25/09:30am 20.3 16.5 9.8 51 5.7 WSW 20 28 11 15 1015.1 1014.7 0.0
25/09:00am 19.7 16.1 11.7 60 4.5 W 22 33 12 18 1014.8 1014.4 0.0
25/08:30am 16.7 14.5 13.4 81 1.9 WSW 17 20 9 11 1014.7 1014.3 0.0
25/08:00am 14.8 13.4 13.5 92 0.7 SW 13 19 7 10 1014.9 1014.5 0.0
25/07:30am 14.4 13.3 13.1 92 0.7 WSW 11 15 6 8 1014.7 1014.3 0.0
25/07:00am 13.9 13.4 12.6 92 0.7 WSW 7 11 4 6 1014.6 1014.2 0.0
25/06:30am 13.7 13.1 12.4 92 0.7 SW 7 11 4 6 1014.7 1014.3 0.0
25/06:00am 13.1 12.3 11.8 92 0.7 SW 7 9 4 5 1014.4 1014.0 0.0
25/05:30am 12.6 11.7 11.3 92 0.7 SW 7 11 4 6 1014.3 1013.9 0.0
25/05:00am 12.2 11.2 10.9 92 0.7 SW 7 11 4 6 1014.2 1013.8 0.0
25/04:30am 12.3 11.5 10.9 91 0.7 WSW 6 9 3 5 1014.0 1013.6 0.0
25/04:00am 12.2 11.3 10.8 91 0.7 WSW 6 11 3 6 1013.7 1013.2 0.0
25/03:30am 11.8 11.2 10.4 91 0.7 E 4 4 2 2 1013.6 1013.1 0.0
25/03:00am 11.4 10.3 10.0 91 0.7 ESE 6 7 3 4 1013.5 1013.0 0.0
25/02:30am 11.7 10.5 10.3 91 0.7 SE 7 9 4 5 1013.5 1013.0 0.0
25/02:00am 11.7 10.6 10.1 90 0.8 SSE 6 7 3 4 1013.7 1013.2 0.0
25/01:30am 12.1 11.0 10.5 90 0.8 S 7 9 4 5 1013.6 1013.1 0.0
25/01:00am 12.2 11.0 10.4 89 0.9 SE 7 9 4 5 1013.5 1013.0 0.0
25/12:30am 12.4 11.3 10.6 89 0.9 SE 7 7 4 4 1013.9 1013.4 0.0
25/12:00am 12.5 11.6 10.6 88 1.0 SSE 6 7 3 4 1014.3 1013.9 0.0
 
Date/Time
WST
Temp
°C
App
Temp
°C
Dew
Point
Rel
Hum
%
Delta-T
°C
Wind Press
QNH
hPa
Press
MSL
hPa
Rain
since 9 am
mm
Dir
 
Spd
km/h
Gust
km/h
Spd
kts
Gust
kts
24/11:30pm 13.3 12.9 11.2 87 1.1 ESE 4 4 2 2 1014.5 1014.1 0.0
24/11:00pm 13.5 12.6 11.2 86 1.2 ESE 7 7 4 4 1014.6 1014.2 0.0
24/10:30pm 14.4 13.3 11.9 85 1.4 ESE 9 13 5 7 1014.6 1014.2 0.0
24/10:00pm 14.8 13.7 11.9 83 1.6 ESE 9 11 5 6 1014.7 1014.3 0.0
24/09:30pm 15.3 13.9 12.1 81 1.8 ESE 11 17 6 9 1014.8 1014.4 0.0
24/09:00pm 15.9 14.2 12.3 79 2.0 SE 13 20 7 11 1014.9 1014.5 0.0
24/08:30pm 15.9 14.2 11.3 74 2.5 S 11 20 6 11 1014.8 1014.4 0.0
24/08:00pm 15.5 13.4 9.8 69 3.0 S 11 11 6 6 1014.6 1014.2 0.0
24/07:30pm 17.1 16.0 9.8 62 3.9 S 6 7 3 4 1014.4 1014.0 0.0
24/07:00pm 17.4 17.7 11.0 66 3.5 CALM 0 2 0 1 1014.3 1013.9 0.0
24/06:30pm 19.9 18.8 9.8 52 5.5 SW 6 7 3 4 1014.3 1013.9 0.0
24/06:00pm 23.0 20.8 7.9 38 8.1 W 9 11 5 6 1014.1 1013.7 0.0
24/05:30pm 24.7 22.8 7.4 33 9.2 WNW 7 13 4 7 1013.9 1013.4 0.0
24/05:00pm 25.1 21.6 7.3 32 9.5 NW 15 19 8 10 1013.7 1013.2 0.0
24/04:30pm 25.6 22.9 7.2 31 9.8 WNW 11 17 6 9 1013.9 1013.4 0.0
24/04:00pm 25.5 23.1 7.1 31 9.8 WNW 9 17 5 9 1013.9 1013.4 0.0
24/03:30pm 25.4 22.5 8.0 33 9.4 NNW 13 20 7 11 1014.2 1013.8 0.0
24/03:00pm 25.2 21.8 7.8 33 9.4 NNW 15 20 8 11 1014.6 1014.2 0.0
24/02:30pm 24.4 20.1 7.1 33 9.2 NNW 19 24 10 13 1014.7 1014.3 0.0
24/02:00pm 23.5 21.3 8.0 37 8.3 N 9 20 5 11 1015.0 1014.6 0.0
24/01:30pm 24.9 22.4 8.0 34 9.1 NW 11 22 6 12 1015.4 1015.0 0.0
24/01:00pm 24.6 22.1 9.7 39 8.3 NW 13 24 7 13 1015.9 1015.4 0.0
24/12:30pm 21.8 20.3 9.0 44 6.9 N 7 17 4 9 1016.4 1015.9 0.0
24/12:00pm 21.9 20.8 10.1 47 6.5 N 6 11 3 6 1016.8 1016.4 0.0
24/11:30am 22.4 20.8 10.2 46 6.8 ESE 9 22 5 12 1017.3 1016.9 0.0
24/11:00am 20.3 18.2 9.8 51 5.7 ENE 11 24 6 13 1017.6 1017.2 0.0
24/10:30am 20.4 17.9 9.6 50 5.9 NE 13 22 7 12 1017.9 1017.5 0.0
24/10:00am 19.7 17.0 10.4 55 5.1 ENE 15 24 8 13 1018.2 1017.8 0.0
24/09:30am 18.9 16.7 10.7 59 4.5 NE 13 22 7 12 1018.5 1018.1 0.0
24/09:00am 16.7 14.3 10.1 65 3.5 E 13 20 7 11 1018.4 1018.0 0.0
24/08:30am 16.7 14.5 10.8 68 3.2 E 13 20 7 11 1018.4 1018.0 0.0
24/08:00am 15.5 12.7 10.1 70 2.9 ESE 15 19 8 10 1018.5 1018.1 0.0
24/07:30am 14.9 12.3 10.7 76 2.3 E 15 19 8 10 1018.8 1018.4 0.0
24/07:00am 12.9 11.5 10.8 87 1.1 E 9 13 5 7 1018.7 1018.3 0.0
24/06:30am 12.2 11.1 10.6 90 0.8 ESE 7 11 4 6 1018.5 1018.1 0.0
24/06:00am 11.1 9.9 9.7 91 0.7 E 6 7 3 4 1018.3 1017.9 0.0
24/05:30am 10.7 9.2 9.3 91 0.7 S 7 9 4 5 1018.2 1017.8 0.0
24/05:00am 9.7 8.6 8.3 91 0.7 S 4 9 2 5 1018.0 1017.6 0.0
24/04:30am 7.9 7.1 6.4 90 0.7 CALM 0 0 0 0 1018.1 1017.7 0.0
24/04:00am 7.4 6.0 5.7 89 0.8 S 2 4 1 2 1017.9 1017.5 0.0
24/03:30am 8.8 7.4 7.1 89 0.8 S 4 4 2 2 1017.6 1017.2 0.0
24/03:00am 9.0 7.0 7.1 88 0.9 ESE 7 13 4 7 1017.6 1017.2 0.0
24/02:30am 10.1 8.0 8.4 89 0.8 S 9 11 5 6 1017.5 1017.1 0.0
24/02:00am 10.4 8.8 8.7 89 0.8 S 7 11 4 6 1017.6 1017.2 0.0
24/01:30am 10.7 8.8 9.0 89 0.9 S 9 13 5 7 1017.4 1017.0 0.0
24/01:00am 10.5 8.5 8.8 89 0.9 S 9 13 5 7 1017.5 1017.1 0.0
24/12:30am 10.4 8.3 8.3 87 1.0 S 9 9 5 5 1017.8 1017.4 0.0
24/12:00am 11.7 9.9 9.6 87 1.1 S 9 13 5 7 1017.8 1017.4 0.0
 
Date/Time
WST
Temp
°C
App
Temp
°C
Dew
Point
Rel
Hum
%
Delta-T
°C
Wind Press
QNH
hPa
Press
MSL
hPa
Rain
since 9 am
mm
Dir
 
Spd
km/h
Gust
km/h
Spd
kts
Gust
kts
23/11:30pm 11.1 9.6 8.3 83 1.4 S 6 7 3 4 1017.9 1017.5 0.0
23/11:00pm 12.5 9.9 9.5 82 1.5 SSW 13 17 7 9 1017.8 1017.4 0.0
23/10:30pm 12.9 10.3 9.5 80 1.8 SSW 13 19 7 10 1017.9 1017.5 0.0
23/10:00pm 13.4 10.5 9.6 78 2.0 SSW 15 22 8 12 1017.8 1017.4 0.0
23/09:30pm 13.9 9.7 9.9 77 2.1 SW 22 30 12 16 1017.7 1017.3 0.0
23/09:00pm 14.2 10.3 9.6 74 2.4 SSW 20 28 11 15 1017.7 1017.3 0.0
23/08:30pm 14.6 10.7 9.6 72 2.6 SSW 20 26 11 14 1017.5 1017.1 0.0
23/08:00pm 15.0 11.4 9.8 71 2.7 SSW 19 26 10 14 1017.1 1016.7 0.0
23/07:30pm 15.5 12.0 10.1 70 2.9 SSW 19 26 10 14 1016.6 1016.1 0.0
23/07:00pm 16.4 12.4 10.3 67 3.3 SW 22 33 12 18 1016.2 1015.7 0.0
23/06:30pm 17.9 13.2 10.8 63 3.9 SW 26 35 14 19 1015.5 1015.1 0.0
23/06:00pm 20.4 16.0 10.5 53 5.5 SW 24 33 13 18 1014.7 1014.3 0.0
23/05:30pm 20.5 17.1 10.6 53 5.5 WSW 19 28 10 15 1014.3 1013.9 0.0
23/05:00pm 21.0 17.9 11.6 55 5.3 WSW 19 26 10 14 1014.2 1013.8 0.0
23/04:30pm 20.9 16.9 10.4 51 5.8 WSW 22 35 12 19 1013.9 1013.4 0.0
23/04:00pm 21.7 17.3 10.5 49 6.2 WSW 24 37 13 20 1013.7 1013.2 0.0
23/03:30pm 21.9 16.5 11.0 50 6.1 WSW 30 41 16 22 1013.5 1013.0 0.0
23/03:00pm 22.5 17.8 10.6 47 6.6 WSW 26 39 14 21 1013.1 1012.6 0.0
23/02:30pm 23.3 18.3 9.7 42 7.5 WSW 26 35 14 19 1012.9 1012.4 0.0
23/02:00pm 23.9 19.4 8.7 38 8.3 W 22 35 12 19 1012.8 1012.3 0.0
23/01:30pm 23.6 19.2 8.8 39 8.1 W 22 35 12 19 1012.9 1012.4 0.0
23/01:00pm 23.1 17.8 8.4 39 7.9 WNW 26 43 14 23 1012.9 1012.4 0.0
23/12:30pm 23.2 17.7 7.7 37 8.2 W 26 41 14 22 1012.9 1012.4 0.0
23/12:00pm 22.4 16.3 8.1 40 7.6 WNW 30 41 16 22 1012.9 1012.4 0.0
23/11:30am 21.9 15.8 8.1 41 7.3 W 30 46 16 25 1013.0 1012.5 0.0
23/11:00am 21.6 15.2 8.5 43 7.0 WNW 32 46 17 25 1013.1 1012.6 0.0
23/10:30am 21.2 16.9 10.7 51 5.8 W 24 39 13 21 1013.2 1012.7 0.0
23/10:00am 19.3 15.0 10.8 58 4.7 WNW 24 41 13 22 1013.3 1012.8 0.0
23/09:30am 19.3 15.1 11.1 59 4.5 WNW 24 37 13 20 1013.3 1012.8 0.0
23/09:00am 18.7 14.6 11.5 63 4.0 WNW 24 39 13 21 1013.4 1012.9 0.8
23/08:30am 18.7 14.3 11.8 64 3.9 WNW 26 39 14 21 1013.2 1012.7 0.8
23/08:00am 17.7 13.4 12.2 70 3.1 NW 26 35 14 19 1013.0 1012.5 0.8
23/07:30am 16.3 12.0 11.9 75 2.4 WNW 26 35 14 19 1012.9 1012.4 0.8
23/07:00am 15.3 11.4 12.1 81 1.8 NW 24 33 13 18 1012.6 1012.1 0.8
23/06:30am 14.2 10.3 12.1 87 1.2 NW 24 33 13 18 1012.6 1012.1 0.8
23/06:00am 13.7 10.7 11.9 89 1.0 WNW 19 30 10 16 1012.5 1012.0 0.8
23/05:30am 13.3 10.2 11.5 89 1.0 NW 19 28 10 15 1012.1 1011.7 0.8
23/05:00am 13.4 10.3 11.6 89 1.0 NW 19 26 10 14 1011.9 1011.5 0.8
23/04:30am 13.0 10.1 10.9 87 1.1 NW 17 22 9 12 1011.9 1011.5 0.8
23/04:00am 13.3 10.8 11.2 87 1.1 NW 15 20 8 11 1011.3 1010.9 0.8
23/03:30am 13.0 12.1 10.7 86 1.2 WNW 6 11 3 6 1011.3 1010.9 0.8
23/03:00am 13.4 11.2 10.9 85 1.3 WNW 13 17 7 9 1011.6 1011.2 0.8
23/02:30am 13.7 10.5 11.2 85 1.3 WNW 19 28 10 15 1011.6 1011.2 0.8
23/02:00am 14.1 10.9 11.8 86 1.3 W 20 32 11 17 1011.2 1010.7 0.8
23/01:30am 14.4 11.4 12.1 86 1.3 WNW 19 26 10 14 1011.3 1010.9 0.8
23/01:00am 15.0 12.5 12.3 84 1.5 WNW 17 24 9 13 1011.2 1010.7 0.8
23/12:30am 15.4 13.0 12.5 83 1.6 WNW 17 26 9 14 1011.3 1010.9 0.8
23/12:00am 15.8 13.0 12.5 81 1.8 WNW 19 26 10 14 1011.2 1010.7 0.8
 
Date/Time
WST
Temp
°C
App
Temp
°C
Dew
Point
Rel
Hum
%
Delta-T
°C
Wind Press
QNH
hPa
Press
MSL
hPa
Rain
since 9 am
mm
Dir
 
Spd
km/h
Gust
km/h
Spd
kts
Gust
kts
22/11:30pm 16.3 13.9 12.8 80 2.0 W 17 26 9 14 1011.2 1010.7 0.8
22/11:00pm 17.0 13.8 13.1 78 2.2 W 22 35 12 19 1010.9 1010.4 0.8
22/10:30pm 17.1 14.2 14.0 82 1.8 WNW 22 32 12 17 1010.8 1010.3 0.8
22/10:00pm 17.3 16.1 14.0 81 1.9 W 13 24 7 13 1010.3 1009.8 0.8
22/09:30pm 18.0 18.2 13.1 73 2.8 NNW 4 7 2 4 1010.0 1009.5 0.8
22/09:00pm 17.9 17.6 13.2 74 2.7 NNE 7 13 4 7 1010.0 1009.5 0.8
22/08:30pm 19.0 18.6 13.0 68 3.4 NE 7 15 4 8 1010.7 1010.2 0.8
22/08:00pm 20.4 19.5 13.6 65 4.0 E 11 15 6 8 1010.1 1009.6 0.8
22/07:30pm 20.2 18.9 13.6 66 3.8 E 13 19 7 10 1009.7 1009.2 0.8
22/07:00pm 20.6 19.9 14.3 67 3.7 ESE 11 15 6 8 1010.1 1009.6 0.8
22/06:30pm 20.1 18.8 13.8 67 3.7 E 13 15 7 8 1009.8 1009.3 0.8
22/06:00pm 20.5 20.0 13.7 65 4.0 NNE 9 20 5 11 1010.8 1010.3 0.8
22/05:38pm 24.8 19.3 11.7 44 7.5 ENE 32 56 17 30 1010.7 1010.2 0.0
22/05:30pm 26.4 22.4 10.5 37 9.0 E 22 30 12 16 1009.3 1008.8 0.0
22/05:00pm 26.8 22.8 10.5 36 9.3 E 22 35 12 19 1009.4 1008.9 0.0
22/04:30pm 27.8 22.4 9.6 32 10.3 E 28 39 15 21 1009.6 1009.1 0.0
22/04:00pm 29.6 24.6 9.7 29 11.3 E 26 35 14 19 1010.5 1010.0 0.0

Other Formats:

Comma delimited format used in spreadsheet applications
http://www.bom.gov.au/fwo/IDW60801/IDW60801.94628.axf

JavaScript Object Notation format (JSON) in row-major order
http://www.bom.gov.au/fwo/IDW60801/IDW60801.94628.json